Time;durP1;ratioP1;P1;durP2;ratioP2;P2;SDS_P1;SDS_P2;PMS_P1;PMS_P2;Temp;Humidity;BMP_temperature;BMP_pressure;BME280_temperature;BME280_humidity;BME280_pressure;Samples;Min_cycle;Max_cycle;Signal;HPM_P1;HPM_P2
2023/04/13 00:02:23;;;;;;;49.70;44.27;;;30.90;82.20;;;;;;1837051;78;21272;-84
2023/04/13 00:04:56;;;;;;;52.10;45.35;;;30.90;82.40;;;;;;1819692;78;21654;-85
2023/04/13 00:07:26;;;;;;;50.17;44.85;;;30.90;82.10;;;;;;1784927;80;21054;-85
2023/04/13 00:10:01;;;;;;;50.45;44.55;;;30.90;82.30;;;;;;1751586;80;21524;-84
2023/04/13 00:12:30;;;;;;;50.33;44.83;;;30.90;82.40;;;;;;1752348;81;21171;-84
2023/04/13 00:15:01;;;;;;;50.25;44.15;;;30.90;82.60;;;;;;1738238;81;21679;-83
2023/04/13 00:17:32;;;;;;;50.00;44.77;;;30.90;83.30;;;;;;1762371;80;21168;-84
2023/04/13 00:20:11;;;;;;;49.67;44.10;;;30.90;82.50;;;;;;1754836;81;21894;-84
2023/04/13 00:22:36;;;;;;;48.15;43.13;;;30.90;82.30;;;;;;1751526;81;21640;-82
2023/04/13 00:25:10;;;;;;;48.70;43.35;;;30.90;82.00;;;;;;1764201;81;21170;-79
2023/04/13 00:27:42;;;;;;;48.65;42.78;;;31.00;82.10;;;;;;1768116;80;21151;-81
2023/04/13 00:30:15;;;;;;;47.85;42.80;;;31.00;82.00;;;;;;1798212;80;21613;-80
2023/04/13 00:32:47;;;;;;;47.62;42.53;;;31.00;81.90;;;;;;1812736;78;21244;-81
2023/04/13 00:35:23;;;;;;;50.43;44.53;;;31.00;81.70;;;;;;1838850;78;21099;-82
2023/04/13 00:37:52;;;;;;;48.10;42.85;;;31.10;81.80;;;;;;1814298;78;21506;-81
2023/04/13 00:40:23;;;;;;;50.00;42.62;;;31.10;81.50;;;;;;1792162;78;21083;-82
2023/04/13 00:42:54;;;;;;;47.95;42.83;;;31.10;81.50;;;;;;1828435;77;21636;-81
2023/04/13 00:45:25;;;;;;;48.45;43.05;;;31.10;81.40;;;;;;1822192;78;21131;-81
2023/04/13 00:47:56;;;;;;;48.25;43.02;;;31.10;81.50;;;;;;1818984;76;21639;-82
2023/04/13 00:50:28;;;;;;;50.35;43.33;;;31.20;81.10;;;;;;1830776;78;21875;-83
2023/04/13 00:52:58;;;;;;;47.98;42.93;;;31.20;80.80;;;;;;1832477;78;21239;-81
2023/04/13 00:55:29;;;;;;;50.50;42.98;;;31.20;80.80;;;;;;1813681;78;21107;-81
2023/04/13 00:58:00;;;;;;;50.28;41.33;;;31.30;80.80;;;;;;1803826;78;21117;-81
2023/04/13 01:00:31;;;;;;;47.83;41.02;;;31.40;80.40;;;;;;1823506;78;21131;-82
2023/04/13 01:03:02;;;;;;;46.80;40.63;;;31.40;80.00;;;;;;1816722;78;21152;-82
2023/04/13 01:05:36;;;;;;;46.92;40.67;;;31.40;79.70;;;;;;1812332;78;21155;-82
2023/04/13 01:08:09;;;;;;;46.83;40.12;;;31.50;80.20;;;;;;1834172;78;21131;-81
2023/04/13 01:11:06;;;;;;;48.02;40.55;;;31.60;79.30;;;;;;1802761;78;21288;-81
2023/04/13 01:13:51;;;;;;;45.45;40.60;;;31.60;79.00;;;;;;1807889;78;21174;-83
2023/04/13 01:16:23;;;;;;;45.50;39.75;;;31.70;78.30;;;;;;1766687;80;21150;-82
2023/04/13 01:18:56;;;;;;;45.40;40.73;;;31.80;78.10;;;;;;1749556;82;21247;-82
2023/04/13 01:21:29;;;;;;;44.40;39.63;;;31.80;77.80;;;;;;1782732;80;21150;-81
2023/04/13 01:24:28;;;;;;;44.85;40.15;;;31.90;77.40;;;;;;1780141;78;21125;-81
2023/04/13 01:27:14;;;;;;;44.77;39.80;;;31.90;77.50;;;;;;1767717;80;21160;-82
2023/04/13 01:29:47;;;;;;;42.90;38.28;;;32.00;77.20;;;;;;1753730;81;21188;-82
2023/04/13 01:32:18;;;;;;;42.38;37.83;;;32.10;76.70;;;;;;1744275;82;21144;-81
2023/04/13 01:34:50;;;;;;;42.58;37.95;;;32.20;76.00;;;;;;1755941;81;21165;-82
2023/04/13 01:37:21;;;;;;;40.98;36.75;;;32.20;75.20;;;;;;1786392;80;21139;-82
2023/04/13 01:39:52;;;;;;;41.08;36.77;;;32.30;74.70;;;;;;1755542;81;21163;-81
2023/04/13 01:42:23;;;;;;;40.25;36.23;;;32.30;73.70;;;;;;1767079;80;21222;-83
2023/04/13 01:44:58;;;;;;;42.15;36.17;;;32.40;73.40;;;;;;1786122;80;21631;-82
2023/04/13 01:47:33;;;;;;;41.98;37.03;;;32.40;73.00;;;;;;1761300;80;21173;-82
2023/04/13 01:50:07;;;;;;;40.80;36.40;;;32.40;73.10;;;;;;1804157;78;21571;-82
2023/04/13 01:52:39;;;;;;;41.58;36.80;;;32.50;73.00;;;;;;1823384;78;21130;-81
2023/04/13 01:55:12;;;;;;;40.65;36.50;;;32.60;73.00;;;;;;1825413;78;21644;-81
2023/04/13 01:57:46;;;;;;;40.15;36.03;;;32.60;72.60;;;;;;1820790;78;21084;-82
2023/04/13 02:00:19;;;;;;;42.67;36.75;;;32.70;72.10;;;;;;1839032;78;21849;-82
2023/04/13 02:02:53;;;;;;;40.40;35.78;;;32.80;71.90;;;;;;1802779;78;21234;-80
2023/04/13 02:05:23;;;;;;;40.10;36.03;;;32.90;71.60;;;;;;1800011;78;21135;-82
2023/04/13 02:07:54;;;;;;;39.13;35.08;;;33.00;70.60;;;;;;1842652;78;21181;-80
2023/04/13 02:10:25;;;;;;;38.90;34.83;;;33.00;70.20;;;;;;1818955;78;21153;-80
2023/04/13 02:12:56;;;;;;;41.10;34.88;;;33.10;69.70;;;;;;1828539;78;21129;-81
2023/04/13 02:15:27;;;;;;;38.02;34.13;;;33.10;69.70;;;;;;1803454;78;21108;-80
2023/04/13 02:17:58;;;;;;;38.13;34.10;;;33.20;68.20;;;;;;1804786;78;21170;-80
2023/04/13 02:20:32;;;;;;;39.92;34.38;;;33.30;68.50;;;;;;1801084;78;21112;-81
2023/04/13 02:23:02;;;;;;;38.90;33.95;;;33.30;67.20;;;;;;1823850;78;22402;-80
2023/04/13 02:25:33;;;;;;;39.03;34.80;;;33.40;67.70;;;;;;1826391;78;21117;-80
2023/04/13 02:28:04;;;;;;;38.73;34.13;;;33.50;66.90;;;;;;1842366;78;21511;-80
2023/04/13 02:30:36;;;;;;;39.25;34.95;;;33.50;67.10;;;;;;1822250;78;21216;-80
2023/04/13 02:33:08;;;;;;;39.65;34.30;;;33.60;66.30;;;;;;1803534;78;21103;-80
2023/04/13 02:35:39;;;;;;;37.50;33.60;;;33.70;65.60;;;;;;1813498;78;21187;-80
2023/04/13 02:38:10;;;;;;;37.35;33.65;;;33.80;65.30;;;;;;1822700;78;21538;-81
2023/04/13 02:40:41;;;;;;;36.93;32.95;;;33.90;64.60;;;;;;1823923;78;21186;-81
2023/04/13 02:43:13;;;;;;;36.68;32.70;;;34.00;63.50;;;;;;1828080;78;21114;-81
2023/04/13 02:45:43;;;;;;;37.93;34.03;;;34.10;63.90;;;;;;1819716;78;21242;-81
2023/04/13 02:48:15;;;;;;;36.30;32.15;;;34.20;63.90;;;;;;1822593;78;21096;-81
2023/04/13 02:50:46;;;;;;;37.73;33.60;;;34.30;62.40;;;;;;1835830;78;21222;-81
2023/04/13 02:53:18;;;;;;;36.20;31.82;;;34.40;61.70;;;;;;1830055;78;21684;-81
2023/04/13 02:55:52;;;;;;;38.40;33.15;;;34.40;61.10;;;;;;1828594;76;21276;-80
2023/04/13 02:58:24;;;;;;;36.00;32.50;;;34.50;61.80;;;;;;1828735;78;21147;-80
2023/04/13 03:00:55;;;;;;;37.10;32.35;;;34.50;61.80;;;;;;1813835;78;21947;-80
2023/04/13 03:03:26;;;;;;;35.68;31.97;;;34.60;62.20;;;;;;1810030;78;21158;-80
2023/04/13 03:05:57;;;;;;;38.25;32.35;;;34.70;61.60;;;;;;1827900;78;21076;-81
2023/04/13 03:08:28;;;;;;;38.10;33.30;;;34.80;61.00;;;;;;1824471;78;21699;-81
2023/04/13 03:10:59;;;;;;;36.83;33.08;;;34.90;60.00;;;;;;1817665;78;21197;-80
2023/04/13 03:13:30;;;;;;;37.70;33.70;;;35.00;59.90;;;;;;1833478;78;21149;-80
2023/04/13 03:16:03;;;;;;;38.20;34.27;;;35.10;59.80;;;;;;1806587;78;21166;-79
2023/04/13 03:18:34;;;;;;;37.83;33.88;;;35.20;60.30;;;;;;1805201;78;21175;-79
2023/04/13 03:21:05;;;;;;;38.25;33.58;;;35.20;60.60;;;;;;1814351;78;21154;-80
2023/04/13 03:23:36;;;;;;;35.33;31.85;;;35.30;59.20;;;;;;1829082;78;21124;-80
2023/04/13 03:26:08;;;;;;;36.13;32.35;;;35.40;59.20;;;;;;1814528;78;21150;-80
2023/04/13 03:28:39;;;;;;;36.73;33.15;;;35.50;58.80;;;;;;1825075;77;21150;-81
2023/04/13 03:31:10;;;;;;;39.48;33.65;;;35.50;58.60;;;;;;1805857;78;21089;-81
2023/04/13 03:33:41;;;;;;;37.42;33.13;;;35.60;59.00;;;;;;1825436;78;21183;-81
2023/04/13 03:36:12;;;;;;;37.23;33.38;;;35.70;58.80;;;;;;1802722;78;21093;-79
2023/04/13 03:38:43;;;;;;;43.17;34.30;;;35.70;57.90;;;;;;1820842;78;21725;-82
2023/04/13 03:41:14;;;;;;;36.08;32.23;;;35.80;58.30;;;;;;1806789;78;21085;-80
2023/04/13 03:43:45;;;;;;;35.90;32.03;;;35.80;57.30;;;;;;1828002;78;21107;-80
2023/04/13 03:46:16;;;;;;;40.90;36.53;;;35.90;57.60;;;;;;1829312;78;21595;-81
2023/04/13 03:48:47;;;;;;;43.00;37.13;;;36.00;57.30;;;;;;1828919;78;21104;-81
2023/04/13 03:51:18;;;;;;;40.90;36.33;;;36.10;57.00;;;;;;1823779;78;21083;-81
2023/04/13 03:53:49;;;;;;;39.83;35.70;;;36.20;56.80;;;;;;1825028;78;21220;-81
2023/04/13 03:56:21;;;;;;;39.90;35.80;;;36.20;56.80;;;;;;1815955;78;21580;-81
2023/04/13 03:58:52;;;;;;;37.35;32.95;;;36.30;57.20;;;;;;1800429;78;21074;-82
2023/04/13 04:01:24;;;;;;;37.88;32.90;;;36.30;55.80;;;;;;1812929;78;21639;-80
2023/04/13 04:03:56;;;;;;;36.80;33.13;;;36.30;55.90;;;;;;1802850;78;21484;-80
2023/04/13 04:06:27;;;;;;;38.80;34.33;;;36.30;55.90;;;;;;1824464;78;21138;-81
2023/04/13 04:08:58;;;;;;;41.73;32.80;;;36.40;56.00;;;;;;1826479;78;21164;-81
2023/04/13 04:11:29;;;;;;;36.63;32.93;;;36.40;55.80;;;;;;1824757;78;21119;-82
2023/04/13 04:14:00;;;;;;;36.60;32.78;;;36.50;55.30;;;;;;1839581;78;21149;-80
2023/04/13 04:16:31;;;;;;;35.10;31.73;;;36.50;55.10;;;;;;1818462;78;21609;-80
2023/04/13 04:19:02;;;;;;;36.50;32.75;;;36.50;54.60;;;;;;1823712;78;21111;-80
2023/04/13 04:21:33;;;;;;;36.95;32.63;;;36.60;54.40;;;;;;1822966;78;21153;-80
2023/04/13 04:24:19;;;;;;;39.48;34.63;;;36.60;54.60;;;;;;1815695;78;21183;-80
2023/04/13 04:26:40;;;;;;;46.18;35.95;;;36.50;55.00;;;;;;1827149;78;21163;-81
2023/04/13 04:29:12;;;;;;;44.42;36.77;;;36.50;55.30;;;;;;1829117;78;21151;-81
2023/04/13 04:31:43;;;;;;;36.23;32.35;;;36.60;55.00;;;;;;1827525;78;21155;-81
2023/04/13 04:34:15;;;;;;;35.95;32.25;;;36.60;54.80;;;;;;1820244;78;21109;-81
2023/04/13 04:36:49;;;;;;;35.65;32.15;;;36.70;55.30;;;;;;1801887;78;21156;-81
2023/04/13 04:39:22;;;;;;;36.38;32.48;;;36.60;55.60;;;;;;1820937;78;21201;-80
2023/04/13 04:42:01;;;;;;;35.00;31.50;;;36.70;55.80;;;;;;1820881;78;21197;-81
2023/04/13 04:44:29;;;;;;;37.00;32.65;;;36.70;55.30;;;;;;1814977;78;21194;-81
2023/04/13 04:47:01;;;;;;;35.83;31.95;;;36.80;54.60;;;;;;1825720;77;21103;-80
2023/04/13 04:49:32;;;;;;;36.08;32.38;;;36.80;55.70;;;;;;1817333;78;21593;-80
2023/04/13 04:52:04;;;;;;;34.50;31.30;;;36.90;55.20;;;;;;1814086;78;21105;-81
2023/04/13 04:54:35;;;;;;;38.15;31.95;;;37.00;55.10;;;;;;1819569;78;21212;-81
2023/04/13 04:57:09;;;;;;;38.38;34.13;;;37.10;54.40;;;;;;1821175;78;21199;-82
2023/04/13 04:59:39;;;;;;;37.73;32.83;;;37.10;53.40;;;;;;1811902;78;21267;-82
2023/04/13 05:02:10;;;;;;;38.33;34.27;;;37.10;54.00;;;;;;1829613;78;21178;-81
2023/04/13 05:04:41;;;;;;;43.85;34.13;;;37.10;54.20;;;;;;1808378;78;21214;-81
2023/04/13 05:07:16;;;;;;;36.42;32.23;;;37.20;54.30;;;;;;1827426;78;21166;-81
2023/04/13 05:09:45;;;;;;;35.30;31.95;;;37.20;53.70;;;;;;1831142;78;21143;-82
2023/04/13 05:12:16;;;;;;;33.67;30.30;;;37.20;54.00;;;;;;1826301;78;21159;-82
2023/04/13 05:14:47;;;;;;;40.88;36.48;;;37.20;54.10;;;;;;1822346;78;21098;-80
2023/04/13 05:17:19;;;;;;;37.10;33.45;;;37.20;52.80;;;;;;1815064;76;21155;-82
2023/04/13 05:19:50;;;;;;;39.98;34.48;;;37.20;53.10;;;;;;1826846;78;21547;-80
2023/04/13 05:22:21;;;;;;;36.93;32.88;;;37.20;53.00;;;;;;1817130;78;21159;-81
2023/04/13 05:24:52;;;;;;;35.90;32.08;;;37.20;53.20;;;;;;1825231;78;21132;-81
2023/04/13 05:27:23;;;;;;;35.58;32.08;;;37.30;52.70;;;;;;1813825;78;21737;-80
2023/04/13 05:29:56;;;;;;;35.08;31.75;;;37.40;52.70;;;;;;1838423;78;21294;-81
2023/04/13 05:32:28;;;;;;;34.23;30.62;;;37.50;52.40;;;;;;1804383;78;21763;-82
2023/04/13 05:34:59;;;;;;;33.85;30.45;;;37.60;51.90;;;;;;1836629;78;21162;-83
2023/04/13 05:37:30;;;;;;;39.33;31.97;;;37.60;52.10;;;;;;1823988;78;21246;-83
2023/04/13 05:40:07;;;;;;;41.00;35.10;;;37.70;52.30;;;;;;1820641;78;21809;-83
2023/04/13 05:42:34;;;;;;;36.68;33.15;;;37.80;51.90;;;;;;1824976;78;21237;-82
2023/04/13 05:45:08;;;;;;;34.13;30.55;;;37.80;52.30;;;;;;1812501;78;21161;-82
2023/04/13 05:47:39;;;;;;;32.73;29.37;;;37.90;51.70;;;;;;1823745;78;21158;-81
2023/04/13 05:50:11;;;;;;;33.08;29.70;;;37.90;51.60;;;;;;1819747;78;21236;-83
2023/04/13 05:52:42;;;;;;;32.73;29.32;;;38.00;50.40;;;;;;1823747;76;21143;-82
2023/04/13 05:55:13;;;;;;;34.83;31.05;;;38.00;50.70;;;;;;1829056;78;21118;-82
2023/04/13 05:57:44;;;;;;;33.75;30.45;;;38.00;49.30;;;;;;1834773;77;21087;-83
2023/04/13 06:00:17;;;;;;;35.65;30.90;;;38.00;49.20;;;;;;1828323;77;21219;-81
2023/04/13 06:02:49;;;;;;;33.78;29.95;;;38.00;48.70;;;;;;1825976;78;21235;-82
2023/04/13 06:05:21;;;;;;;37.88;31.48;;;38.00;49.20;;;;;;1822746;78;21150;-81
2023/04/13 06:07:52;;;;;;;34.35;30.48;;;38.00;49.30;;;;;;1826200;78;21159;-82
2023/04/13 06:10:23;;;;;;;35.28;31.80;;;38.00;49.00;;;;;;1830241;78;21088;-82
2023/04/13 06:12:54;;;;;;;33.92;30.60;;;38.10;48.50;;;;;;1814559;78;21214;-81
2023/04/13 06:15:25;;;;;;;33.95;30.45;;;38.20;48.20;;;;;;1789227;78;21170;-82
2023/04/13 06:17:56;;;;;;;36.60;31.65;;;38.30;49.00;;;;;;1804078;78;21184;-81
2023/04/13 06:20:27;;;;;;;43.75;30.85;;;38.30;48.40;;;;;;1823890;78;21194;-81
2023/04/13 06:22:58;;;;;;;32.78;29.50;;;38.40;48.20;;;;;;1833592;78;21758;-83
2023/04/13 06:25:30;;;;;;;33.53;29.92;;;38.40;48.10;;;;;;1797924;78;21766;-82
2023/04/13 06:28:03;;;;;;;36.25;31.70;;;38.40;48.90;;;;;;1830041;78;21142;-81
2023/04/13 06:30:34;;;;;;;34.08;30.68;;;38.30;48.10;;;;;;1803669;78;21142;-81
2023/04/13 06:33:05;;;;;;;35.83;30.75;;;38.40;49.00;;;;;;1842705;78;21610;-83
2023/04/13 06:35:36;;;;;;;34.18;30.55;;;38.40;48.50;;;;;;1788867;78;21275;-82
2023/04/13 06:38:08;;;;;;;32.88;29.57;;;38.50;48.20;;;;;;1820554;78;22199;-84
2023/04/13 06:40:40;;;;;;;33.53;29.90;;;38.50;48.50;;;;;;1834566;78;21243;-81
2023/04/13 06:43:11;;;;;;;33.23;29.87;;;38.40;48.30;;;;;;1829322;77;21618;-81
2023/04/13 06:45:43;;;;;;;33.02;29.72;;;38.30;48.00;;;;;;1812014;77;21600;-80
2023/04/13 06:48:14;;;;;;;34.65;30.82;;;38.40;48.10;;;;;;1817395;78;21644;-81
2023/04/13 06:50:45;;;;;;;33.33;29.80;;;38.30;48.10;;;;;;1839785;78;21618;-79
2023/04/13 06:53:16;;;;;;;32.23;28.90;;;38.40;48.20;;;;;;1819743;78;21109;-82
2023/04/13 06:55:47;;;;;;;33.83;30.35;;;38.40;48.80;;;;;;1839630;78;21138;-80
2023/04/13 06:58:19;;;;;;;33.38;30.15;;;38.40;48.40;;;;;;1821996;78;21665;-81
2023/04/13 07:00:50;;;;;;;32.88;29.70;;;38.30;48.80;;;;;;1824969;78;21618;-81
2023/04/13 07:03:21;;;;;;;34.43;30.90;;;38.30;48.80;;;;;;1802359;78;21595;-82
2023/04/13 07:05:53;;;;;;;32.13;29.05;;;38.40;49.10;;;;;;1818649;78;21645;-81
2023/04/13 07:08:24;;;;;;;31.93;28.70;;;38.40;49.80;;;;;;1821868;78;21157;-81
2023/04/13 07:10:56;;;;;;;32.70;29.60;;;38.40;49.60;;;;;;1820156;78;21151;-81
2023/04/13 07:13:27;;;;;;;36.15;29.52;;;38.40;49.40;;;;;;1831065;78;21145;-81
2023/04/13 07:15:58;;;;;;;32.33;28.92;;;38.30;49.10;;;;;;1818279;78;21147;-81
2023/04/13 07:18:30;;;;;;;32.40;29.37;;;38.30;48.80;;;;;;1817822;78;21623;-81
2023/04/13 07:21:01;;;;;;;32.10;28.40;;;38.30;48.80;;;;;;1817020;78;21091;-82
2023/04/13 07:23:32;;;;;;;31.35;28.25;;;38.30;48.80;;;;;;1814774;78;21099;-81
2023/04/13 07:26:03;;;;;;;32.90;29.57;;;38.30;49.10;;;;;;1815919;78;21672;-81
2023/04/13 07:28:34;;;;;;;33.70;30.15;;;38.30;49.00;;;;;;1814346;78;21497;-81
2023/04/13 07:31:06;;;;;;;47.00;31.40;;;38.40;48.70;;;;;;1814521;78;21135;-80
2023/04/13 07:33:37;;;;;;;32.23;28.75;;;38.40;48.70;;;;;;1822873;78;21211;-81
2023/04/13 07:36:09;;;;;;;33.10;29.57;;;38.50;49.10;;;;;;1812109;78;21135;-82
2023/04/13 07:38:40;;;;;;;34.10;30.70;;;38.50;48.10;;;;;;1821974;76;21181;-81
2023/04/13 07:41:11;;;;;;;33.08;29.82;;;38.50;47.30;;;;;;1823811;76;21107;-82
2023/04/13 07:43:42;;;;;;;31.68;28.42;;;38.60;47.40;;;;;;1826474;78;21154;-81
2023/04/13 07:46:14;;;;;;;34.58;31.00;;;38.50;47.90;;;;;;1812268;78;21170;-81
2023/04/13 07:48:45;;;;;;;33.50;29.98;;;38.50;47.10;;;;;;1823137;78;21287;-82
2023/04/13 07:51:19;;;;;;;40.65;30.85;;;38.50;47.40;;;;;;1813612;78;21565;-82
2023/04/13 07:53:52;;;;;;;34.20;29.12;;;38.50;47.60;;;;;;1817628;78;21745;-81
2023/04/13 07:56:23;;;;;;;35.70;32.08;;;38.50;47.60;;;;;;1838398;78;21543;-81
2023/04/13 07:58:54;;;;;;;37.60;30.27;;;38.50;47.10;;;;;;1814520;78;21692;-80
2023/04/13 08:01:25;;;;;;;34.78;31.33;;;38.50;46.90;;;;;;1811227;78;21143;-82
2023/04/13 08:03:56;;;;;;;34.67;31.17;;;38.50;46.90;;;;;;1824876;78;21083;-82
2023/04/13 08:06:27;;;;;;;33.00;29.85;;;38.50;47.20;;;;;;1814655;78;21170;-80
2023/04/13 08:08:58;;;;;;;33.55;30.23;;;38.40;47.40;;;;;;1821073;78;21162;-81
2023/04/13 08:11:29;;;;;;;32.85;29.45;;;38.50;47.80;;;;;;1816465;78;21645;-81
2023/04/13 08:14:01;;;;;;;34.35;30.85;;;38.50;47.80;;;;;;1817189;78;21149;-81
2023/04/13 08:16:33;;;;;;;34.23;30.72;;;38.50;47.50;;;;;;1821330;78;21678;-81
2023/04/13 08:19:09;;;;;;;32.88;29.67;;;38.50;47.40;;;;;;1828998;76;21063;-82
2023/04/13 08:21:43;;;;;;;34.63;31.12;;;38.60;47.50;;;;;;1815383;78;21068;-82
2023/04/13 08:24:14;;;;;;;32.60;29.40;;;38.60;47.60;;;;;;1816465;77;21103;-81
2023/04/13 08:26:45;;;;;;;33.35;29.82;;;38.60;47.90;;;;;;1817129;78;21195;-80
2023/04/13 08:29:16;;;;;;;33.05;29.82;;;38.60;47.90;;;;;;1837988;78;21142;-81
2023/04/13 08:31:47;;;;;;;32.98;29.72;;;38.60;46.90;;;;;;1759523;80;21221;-81
2023/04/13 08:34:19;;;;;;;33.45;30.12;;;38.60;47.30;;;;;;1776169;80;21158;-79
2023/04/13 08:36:50;;;;;;;35.00;31.20;;;38.70;47.90;;;;;;1782982;80;21134;-81
2023/04/13 08:39:21;;;;;;;33.20;29.90;;;38.70;47.00;;;;;;1780105;80;21210;-82
2023/04/13 08:41:52;;;;;;;33.63;30.15;;;38.70;46.80;;;;;;1765094;80;21103;-80
2023/04/13 08:44:24;;;;;;;32.55;29.30;;;38.70;46.90;;;;;;1779888;78;21671;-81
2023/04/13 08:46:56;;;;;;;33.23;29.75;;;38.60;46.90;;;;;;1778788;80;21198;-82
2023/04/13 08:49:28;;;;;;;34.13;30.52;;;38.60;47.70;;;;;;1784847;80;21196;-84
2023/04/13 08:52:03;;;;;;;34.18;30.77;;;38.60;47.60;;;;;;1766536;80;21713;-81
2023/04/13 08:54:34;;;;;;;34.50;31.00;;;38.50;47.70;;;;;;1782436;79;21186;-84
2023/04/13 08:57:06;;;;;;;34.13;30.57;;;38.50;48.10;;;;;;1797423;79;21205;-80
2023/04/13 08:59:40;;;;;;;34.27;30.70;;;38.40;47.90;;;;;;1814124;78;21650;-81
2023/04/13 09:02:12;;;;;;;35.95;32.40;;;38.40;47.80;;;;;;1814579;78;21220;-81
2023/04/13 09:04:49;;;;;;;34.27;30.77;;;38.40;47.90;;;;;;1823062;76;21084;-82
2023/04/13 09:07:20;;;;;;;34.33;30.85;;;38.30;48.00;;;;;;1820290;78;21779;-81
2023/04/13 09:10:04;;;;;;;32.70;29.52;;;38.30;48.30;;;;;;1814636;78;21715;-82
2023/04/13 09:12:49;;;;;;;34.27;30.88;;;38.20;48.50;;;;;;1814334;77;21084;-82
2023/04/13 09:15:23;;;;;;;37.13;31.48;;;38.20;48.50;;;;;;1817519;78;21208;-81
2023/04/13 09:17:54;;;;;;;35.08;31.48;;;38.20;48.60;;;;;;1831558;78;21150;-81
2023/04/13 09:20:25;;;;;;;35.70;31.90;;;38.20;49.00;;;;;;1831117;78;21174;-80
2023/04/13 09:22:56;;;;;;;33.50;30.40;;;38.20;49.30;;;;;;1831325;78;21847;-80
2023/04/13 09:25:29;;;;;;;33.98;30.68;;;38.20;49.20;;;;;;1814029;78;21189;-80
2023/04/13 09:28:10;;;;;;;33.58;30.15;;;38.10;49.00;;;;;;1827606;78;21158;-81
2023/04/13 09:30:41;;;;;;;33.83;30.05;;;38.10;49.70;;;;;;1812740;78;21165;-81
2023/04/13 09:33:13;;;;;;;34.60;31.05;;;38.00;49.80;;;;;;1810034;78;21126;-81
2023/04/13 09:35:44;;;;;;;33.33;30.15;;;38.10;50.30;;;;;;1833705;76;21147;-81
2023/04/13 09:38:16;;;;;;;34.18;30.77;;;38.00;50.50;;;;;;1837300;78;21174;-81
2023/04/13 09:41:12;;;;;;;35.50;32.00;;;37.90;50.30;;;;;;1761398;80;21155;-83
2023/04/13 09:43:46;;;;;;;35.25;31.70;;;37.90;50.50;;;;;;1775056;80;21228;-81
2023/04/13 09:46:17;;;;;;;36.75;33.08;;;37.90;50.90;;;;;;1786110;80;21162;-82
2023/04/13 09:49:05;;;;;;;36.05;32.35;;;37.90;51.00;;;;;;1786470;80;21135;-80
2023/04/13 09:51:41;;;;;;;34.80;31.40;;;37.80;51.20;;;;;;1786603;80;21174;-80
2023/04/13 09:54:12;;;;;;;41.70;33.13;;;37.80;51.40;;;;;;1774312;80;21151;-80
2023/04/13 09:56:45;;;;;;;36.75;33.13;;;37.80;51.50;;;;;;1783945;80;21194;-81
2023/04/13 09:59:18;;;;;;;36.00;32.53;;;37.80;51.50;;;;;;1790264;78;21559;-80
2023/04/13 10:01:51;;;;;;;38.17;32.85;;;37.70;51.60;;;;;;1784242;80;21135;-81
2023/04/13 10:04:23;;;;;;;35.83;32.10;;;37.70;52.10;;;;;;1768947;79;21100;-80
2023/04/13 10:06:54;;;;;;;35.80;31.93;;;37.70;52.00;;;;;;1764242;80;21095;-81
2023/04/13 10:09:26;;;;;;;35.78;32.17;;;37.60;51.80;;;;;;1755327;82;21179;-81
2023/04/13 10:11:58;;;;;;;35.88;32.23;;;37.60;51.90;;;;;;1785052;78;21221;-81
2023/04/13 10:14:32;;;;;;;36.05;32.55;;;37.60;51.90;;;;;;1756766;82;21147;-80
2023/04/13 10:17:23;;;;;;;36.50;32.78;;;37.60;51.70;;;;;;1746547;82;21210;-82
2023/04/13 10:19:57;;;;;;;35.43;32.03;;;37.50;51.90;;;;;;1756660;80;21159;-81
2023/04/13 10:22:29;;;;;;;35.05;31.52;;;37.50;52.00;;;;;;1761832;79;21759;-81
2023/04/13 10:25:05;;;;;;;34.00;30.62;;;37.50;51.70;;;;;;1771877;80;21150;-81
2023/04/13 10:27:38;;;;;;;35.83;32.13;;;37.50;51.90;;;;;;1823834;78;21118;-81
2023/04/13 10:30:17;;;;;;;34.48;31.07;;;37.40;51.80;;;;;;1814084;76;21452;-82
2023/04/13 10:32:51;;;;;;;36.35;32.45;;;37.40;51.90;;;;;;1828317;78;21114;-81
2023/04/13 10:35:24;;;;;;;35.90;32.28;;;37.30;52.30;;;;;;1816870;78;21175;-80
2023/04/13 10:38:01;;;;;;;36.00;32.23;;;37.30;52.30;;;;;;1827902;78;21213;-74
2023/04/13 10:40:47;;;;;;;35.75;32.05;;;37.30;52.50;;;;;;1817528;78;21098;-74
2023/04/13 10:43:31;;;;;;;38.05;33.85;;;37.20;52.60;;;;;;1792030;78;21158;-75
2023/04/13 10:46:12;;;;;;;34.70;31.20;;;37.20;52.60;;;;;;1800685;78;21173;-74
2023/04/13 10:48:45;;;;;;;33.58;30.17;;;37.20;52.70;;;;;;1822373;78;21147;-74
2023/04/13 10:51:16;;;;;;;37.55;33.53;;;37.10;52.80;;;;;;1779683;80;21151;-74
2023/04/13 10:53:47;;;;;;;35.50;31.87;;;37.10;52.90;;;;;;1739417;82;21179;-74
2023/04/13 10:56:19;;;;;;;35.52;31.75;;;37.10;53.80;;;;;;1764912;80;21158;-74
2023/04/13 10:58:53;;;;;;;37.00;32.60;;;37.00;53.30;;;;;;1782327;78;21324;-74
2023/04/13 11:01:25;;;;;;;36.30;31.30;;;37.00;53.50;;;;;;1732225;80;21186;-73
2023/04/13 11:03:57;;;;;;;35.48;31.52;;;37.00;53.70;;;;;;1702041;84;21226;-74
2023/04/13 11:06:30;;;;;;;35.40;31.62;;;36.90;53.50;;;;;;1707224;83;21179;-74
2023/04/13 11:09:10;;;;;;;36.95;33.02;;;36.90;53.70;;;;;;1732178;82;21199;-73
2023/04/13 11:11:38;;;;;;;36.35;32.63;;;36.90;54.10;;;;;;1717382;83;21190;-73
2023/04/13 11:14:16;;;;;;;39.27;31.80;;;36.80;54.00;;;;;;1723287;83;21798;-73
2023/04/13 11:16:45;;;;;;;35.58;31.70;;;36.80;54.10;;;;;;1746903;81;21168;-73
2023/04/13 11:19:17;;;;;;;33.98;30.60;;;36.80;54.20;;;;;;1781401;80;22437;-72
2023/04/13 11:22:09;;;;;;;34.88;31.33;;;36.80;54.30;;;;;;1787220;80;21549;-74
2023/04/13 11:24:41;;;;;;;33.95;30.45;;;36.70;54.90;;;;;;1830950;78;21197;-82
2023/04/13 11:27:24;;;;;;;33.78;30.37;;;36.70;54.50;;;;;;1837477;78;21133;-83
2023/04/13 11:30:09;;;;;;;35.48;30.62;;;36.70;54.60;;;;;;1839316;78;21126;-83
2023/04/13 11:32:37;;;;;;;33.40;29.90;;;36.60;54.50;;;;;;1838526;78;21161;-82
2023/04/13 11:35:09;;;;;;;35.38;30.50;;;36.50;54.50;;;;;;1821562;78;21095;-82
2023/04/13 11:37:44;;;;;;;33.25;29.98;;;36.60;54.60;;;;;;1836347;78;21082;-84
2023/04/13 11:40:26;;;;;;;35.35;31.52;;;36.50;54.60;;;;;;1839054;78;21129;-82
2023/04/13 11:42:57;;;;;;;34.65;31.05;;;36.50;54.60;;;;;;1816021;78;21104;-82
2023/04/13 11:45:30;;;;;;;34.78;31.07;;;36.50;54.70;;;;;;1811723;78;21163;-82
2023/04/13 11:48:04;;;;;;;34.30;30.72;;;36.40;54.60;;;;;;1831429;77;21121;-84
2023/04/13 11:50:34;;;;;;;32.50;29.40;;;36.40;54.60;;;;;;1839029;78;21234;-83
2023/04/13 11:53:08;;;;;;;33.60;30.27;;;36.40;54.70;;;;;;1835223;78;21084;-83
2023/04/13 11:55:40;;;;;;;33.85;30.25;;;36.30;54.60;;;;;;1827328;78;21213;-82
2023/04/13 11:58:17;;;;;;;37.25;32.23;;;36.30;54.80;;;;;;1826625;78;21144;-83
2023/04/13 12:00:49;;;;;;;33.70;30.10;;;36.30;54.80;;;;;;1805166;78;21132;-82
2023/04/13 12:03:20;;;;;;;35.05;31.17;;;36.20;54.70;;;;;;1808450;79;21099;-83
2023/04/13 12:05:55;;;;;;;33.40;29.82;;;36.20;54.70;;;;;;1807645;79;21245;-82
2023/04/13 12:08:28;;;;;;;35.30;31.52;;;36.20;54.70;;;;;;1818697;78;21716;-82
2023/04/13 12:11:05;;;;;;;34.53;30.95;;;36.10;54.80;;;;;;1825677;78;21759;-84
2023/04/13 12:13:49;;;;;;;34.78;30.88;;;36.10;55.00;;;;;;1809401;79;21088;-85
2023/04/13 12:16:27;;;;;;;34.48;30.15;;;36.10;55.00;;;;;;1805356;79;21167;-83
2023/04/13 12:19:07;;;;;;;36.77;31.40;;;36.10;55.10;;;;;;1818183;78;22003;-82
2023/04/13 12:21:41;;;;;;;33.50;29.85;;;36.10;55.20;;;;;;1832495;78;21136;-82
2023/04/13 12:24:13;;;;;;;34.65;30.92;;;36.00;55.50;;;;;;1835147;78;21745;-83
2023/04/13 12:26:45;;;;;;;33.85;30.17;;;35.90;55.90;;;;;;1836519;78;21144;-82
2023/04/13 12:29:17;;;;;;;34.67;31.05;;;35.90;56.60;;;;;;1828931;78;21181;-83
2023/04/13 12:31:48;;;;;;;33.83;29.87;;;35.80;56.70;;;;;;1767391;79;21155;-82
2023/04/13 12:34:21;;;;;;;36.08;31.30;;;35.80;56.70;;;;;;1835446;78;21080;-85
2023/04/13 12:36:52;;;;;;;34.38;30.15;;;35.70;56.80;;;;;;1838983;78;21151;-82
2023/04/13 12:39:23;;;;;;;36.25;31.17;;;35.70;57.30;;;;;;1838743;78;21159;-84
2023/04/13 12:41:54;;;;;;;33.23;29.65;;;35.70;57.80;;;;;;1839115;78;21098;-83
2023/04/13 12:44:25;;;;;;;33.90;29.70;;;35.60;57.90;;;;;;1838872;78;21245;-83
2023/04/13 12:46:56;;;;;;;34.90;29.90;;;35.60;58.00;;;;;;1834785;78;21143;-83
2023/04/13 12:49:27;;;;;;;33.25;29.75;;;35.50;58.70;;;;;;1838201;78;21639;-85
2023/04/13 12:51:57;;;;;;;35.60;30.60;;;35.40;59.10;;;;;;1839098;78;21217;-80
2023/04/13 12:54:29;;;;;;;32.58;29.42;;;35.40;59.80;;;;;;1839487;78;21150;-83
2023/04/13 12:57:00;;;;;;;33.02;29.12;;;35.40;59.70;;;;;;1839355;78;21128;-82